Time;durP1;ratioP1;P1;durP2;ratioP2;P2;SDS_P1;SDS_P2;PMS_P1;PMS_P2;Temp;Humidity;BMP_temperature;BMP_pressure;BME280_temperature;BME280_humidity;BME280_pressure;Samples;Min_cycle;Max_cycle;Signal;HPM_P1;HPM_P2
2023/12/19 00:00:42;;;;;;;7.93;1.73;;;;;;;5.19;82.98;102019.13;5022663;28;20034;-68
2023/12/19 00:03:07;;;;;;;6.43;2.15;;;;;;;5.05;83.66;102014.59;5026977;28;20021;-68
2023/12/19 00:05:33;;;;;;;7.45;2.15;;;;;;;4.82;84.75;102018.22;5028915;28;20048;-68
2023/12/19 00:07:58;;;;;;;4.63;1.35;;;;;;;4.82;84.70;102020.81;5024588;28;20029;-68
2023/12/19 00:10:24;;;;;;;4.88;1.10;;;;;;;5.09;83.86;102017.88;5025708;28;20025;-68
2023/12/19 00:12:49;;;;;;;2.10;0.90;;;;;;;5.30;82.96;102011.69;5023326;28;20076;-68
2023/12/19 00:15:15;;;;;;;3.20;1.38;;;;;;;5.38;82.31;102004.41;5027103;28;20033;-68
2023/12/19 00:17:43;;;;;;;3.90;0.75;;;;;;;5.55;81.49;101996.66;5026475;28;20033;-68
2023/12/19 00:20:09;;;;;;;1.60;0.38;;;;;;;5.64;80.64;102001.41;5028422;28;20029;-68
2023/12/19 00:22:35;;;;;;;1.13;0.40;;;;;;;5.75;80.21;102005.19;5005201;28;20061;-68
2023/12/19 00:25:00;;;;;;;3.10;0.60;;;;;;;5.78;79.73;101999.84;5028881;28;20048;-68
2023/12/19 00:27:26;;;;;;;6.63;1.52;;;;;;;5.52;81.01;101991.66;5023186;28;20024;-68
2023/12/19 00:29:51;;;;;;;4.72;2.13;;;;;;;5.08;82.94;102000.69;5029283;28;20036;-68
2023/12/19 00:32:16;;;;;;;6.72;2.78;;;;;;;5.01;83.44;101994.97;5027507;28;20029;-68
2023/12/19 00:34:42;;;;;;;3.85;2.40;;;;;;;4.75;84.93;101997.91;5027127;28;20143;-68
2023/12/19 00:37:07;;;;;;;7.82;3.15;;;;;;;4.77;85.30;101996.94;5026755;28;20033;-68
2023/12/19 00:39:35;;;;;;;5.47;2.53;;;;;;;4.59;86.19;101990.03;5007131;28;20038;-68
2023/12/19 00:42:00;;;;;;;8.13;2.75;;;;;;;4.45;86.88;101992.41;5026491;28;20087;-68
2023/12/19 00:44:25;;;;;;;11.98;3.25;;;;;;;4.34;87.76;101983.38;5027514;28;20465;-68
2023/12/19 00:46:51;;;;;;;9.48;2.95;;;;;;;4.34;87.99;101988.53;5028027;28;20029;-68
2023/12/19 00:49:16;;;;;;;8.40;2.72;;;;;;;4.41;87.92;101976.22;5027417;28;20029;-68
2023/12/19 00:51:42;;;;;;;4.95;1.05;;;;;;;4.72;85.81;101974.84;5005765;28;21848;-68
2023/12/19 00:54:08;;;;;;;3.58;0.70;;;;;;;5.22;83.52;101967.28;5023527;28;20042;-68
2023/12/19 00:56:33;;;;;;;3.08;0.70;;;;;;;5.43;82.30;101968.81;5027509;28;20030;-68
2023/12/19 00:58:59;;;;;;;2.15;0.60;;;;;;;5.33;82.09;101975.34;5027208;28;20370;-68
2023/12/19 01:01:25;;;;;;;3.10;0.77;;;;;;;5.44;81.69;101967.91;5026767;28;20473;-68
2023/12/19 01:03:51;;;;;;;1.85;0.52;;;;;;;5.53;81.15;101962.28;5032814;28;20025;-68
2023/12/19 01:06:16;;;;;;;1.23;0.32;;;;;;;5.47;81.63;101965.19;5029271;28;20033;-68
2023/12/19 01:08:42;;;;;;;3.05;0.70;;;;;;;5.51;81.13;101966.72;5029748;28;20033;-68
2023/12/19 01:11:09;;;;;;;2.17;0.57;;;;;;;5.53;81.05;101957.13;5030371;28;20025;-68
2023/12/19 01:13:38;;;;;;;4.47;1.05;;;;;;;5.55;81.06;101960.47;5031136;28;20033;-68
2023/12/19 01:16:05;;;;;;;4.50;1.20;;;;;;;5.31;82.13;101962.50;5031527;28;20041;-67
2023/12/19 01:18:30;;;;;;;1.73;0.50;;;;;;;5.58;80.50;101955.16;5030906;28;20485;-68
2023/12/19 01:20:56;;;;;;;2.15;0.30;;;;;;;5.68;79.98;101956.34;5032273;28;20116;-68
2023/12/19 01:23:23;;;;;;;4.65;0.77;;;;;;;5.72;80.28;101951.03;5033800;28;20040;-68
2023/12/19 01:25:48;;;;;;;1.42;0.38;;;;;;;5.75;79.51;101953.44;5030221;28;20040;-69
2023/12/19 01:28:14;;;;;;;1.33;0.43;;;;;;;5.76;78.90;101950.78;5032202;28;20029;-69
2023/12/19 01:30:40;;;;;;;2.13;0.40;;;;;;;5.75;79.14;101951.69;5030481;28;20021;-69
2023/12/19 01:33:07;;;;;;;1.73;0.68;;;;;;;5.71;79.36;101939.00;5032100;28;20026;-69
2023/12/19 01:35:33;;;;;;;3.42;0.60;;;;;;;5.64;79.96;101938.50;5030635;28;20505;-69
2023/12/19 01:37:58;;;;;;;1.52;0.63;;;;;;;5.61;79.50;101933.47;5031891;28;20033;-68
2023/12/19 01:40:28;;;;;;;2.90;0.50;;;;;;;5.59;79.58;101941.31;5012748;28;20492;-69
2023/12/19 01:42:54;;;;;;;3.28;0.63;;;;;;;5.62;79.50;101930.81;5031512;28;20029;-69
2023/12/19 01:45:27;;;;;;;2.53;0.38;;;;;;;5.62;79.33;101943.75;5029914;28;20030;-69
2023/12/19 01:47:53;;;;;;;1.65;0.47;;;;;;;5.64;79.38;101938.50;5031117;28;20116;-69
2023/12/19 01:50:19;;;;;;;3.33;0.50;;;;;;;5.60;79.74;101939.56;5026628;28;20026;-69
2023/12/19 01:52:48;;;;;;;1.42;0.50;;;;;;;5.54;79.96;101938.13;5030938;28;20170;-69
2023/12/19 01:55:15;;;;;;;2.92;0.60;;;;;;;5.52;80.25;101928.75;5030902;28;20413;-69
2023/12/19 01:57:41;;;;;;;5.22;1.00;;;;;;;5.44;80.02;101921.38;5029403;28;20112;-70
2023/12/19 02:00:08;;;;;;;3.00;0.57;;;;;;;5.39;80.69;101912.19;5029567;28;20025;-69
2023/12/19 02:02:34;;;;;;;2.58;0.52;;;;;;;5.41;80.40;101916.38;5029597;28;20037;-70
2023/12/19 02:05:00;;;;;;;1.13;0.32;;;;;;;5.42;80.42;101907.69;5029421;28;20034;-69
2023/12/19 02:07:25;;;;;;;2.17;0.75;;;;;;;5.43;80.63;101914.53;5030657;28;20080;-69
2023/12/19 02:09:52;;;;;;;1.00;0.40;;;;;;;5.49;80.39;101909.06;5030803;28;20044;-69
2023/12/19 02:12:17;;;;;;;2.75;0.40;;;;;;;5.54;79.47;101917.44;5028867;28;20116;-69
2023/12/19 02:14:44;;;;;;;1.45;0.40;;;;;;;5.56;79.24;101910.44;5028241;28;20116;-69
2023/12/19 02:17:11;;;;;;;2.05;0.40;;;;;;;5.55;79.49;101906.19;5027983;28;20477;-69
2023/12/19 02:19:47;;;;;;;3.72;0.77;;;;;;;5.48;79.49;101897.06;5026153;28;20033;-69
2023/12/19 02:22:13;;;;;;;2.78;0.63;;;;;;;5.47;79.80;101894.56;5028392;28;20072;-69
2023/12/19 02:24:39;;;;;;;2.85;0.70;;;;;;;5.49;79.40;101892.72;5030143;28;20049;-69
2023/12/19 02:27:06;;;;;;;5.07;0.50;;;;;;;5.46;79.76;101892.88;5030804;28;20389;-69
2023/12/19 02:29:31;;;;;;;4.60;0.47;;;;;;;5.47;79.61;101886.78;5029689;28;20082;-69
2023/12/19 02:31:59;;;;;;;2.35;0.52;;;;;;;5.44;80.03;101897.28;5030772;28;20465;-69
2023/12/19 02:34:25;;;;;;;3.95;0.50;;;;;;;5.37;79.87;101896.75;5024786;28;20113;-69
2023/12/19 02:36:51;;;;;;;3.97;0.60;;;;;;;5.36;79.72;101900.25;5028486;28;20060;-69
2023/12/19 02:39:16;;;;;;;2.38;0.82;;;;;;;5.39;79.84;101897.50;5029778;28;20429;-69
2023/12/19 02:41:42;;;;;;;3.92;0.60;;;;;;;5.36;79.87;101897.66;5028226;28;20125;-69
2023/12/19 02:44:08;;;;;;;1.85;0.40;;;;;;;5.28;80.58;101894.63;5029094;28;20330;-69
2023/12/19 02:46:33;;;;;;;4.10;0.47;;;;;;;5.29;80.24;101893.72;5026116;28;20036;-69
2023/12/19 02:49:00;;;;;;;3.05;0.75;;;;;;;5.28;80.60;101874.78;5029902;28;20164;-69
2023/12/19 02:51:26;;;;;;;1.10;0.40;;;;;;;5.20;80.95;101876.91;5027488;28;20037;-69
2023/12/19 02:53:53;;;;;;;4.10;0.50;;;;;;;5.24;80.17;101878.44;5026772;28;20045;-69
2023/12/19 02:56:19;;;;;;;2.20;0.38;;;;;;;5.25;80.46;101864.59;5027172;28;20057;-69
2023/12/19 02:58:44;;;;;;;1.38;0.55;;;;;;;5.27;80.01;101872.28;5023010;28;20060;-69
2023/12/19 03:01:09;;;;;;;2.15;0.38;;;;;;;5.32;79.81;101857.38;5028394;28;20542;-69
2023/12/19 03:03:35;;;;;;;1.35;0.40;;;;;;;5.35;79.66;101854.63;5024644;28;20052;-69
2023/12/19 03:06:01;;;;;;;2.22;0.30;;;;;;;5.34;79.50;101853.81;5011545;28;20499;-69
2023/12/19 03:08:27;;;;;;;1.50;0.40;;;;;;;5.30;79.77;101846.28;5026336;28;20069;-69
2023/12/19 03:10:53;;;;;;;1.92;0.57;;;;;;;5.26;79.80;101853.34;5025766;28;20037;-69
2023/12/19 03:13:18;;;;;;;4.13;0.50;;;;;;;5.30;79.67;101851.44;5029502;28;20038;-69
2023/12/19 03:15:44;;;;;;;3.35;0.45;;;;;;;5.26;79.88;101857.69;5030550;28;20094;-69
2023/12/19 03:18:10;;;;;;;2.20;0.63;;;;;;;5.15;80.29;101860.00;5026459;28;20026;-69
2023/12/19 03:20:35;;;;;;;3.80;0.73;;;;;;;5.04;80.96;101851.91;5028802;28;20040;-69
2023/12/19 03:23:01;;;;;;;1.63;0.60;;;;;;;5.00;80.78;101854.66;5029509;28;20026;-69
2023/12/19 03:25:27;;;;;;;6.00;0.50;;;;;;;4.98;81.14;101853.06;5027998;28;20065;-69
2023/12/19 03:27:53;;;;;;;1.95;0.50;;;;;;;5.00;80.72;101848.66;5029039;28;20022;-69
2023/12/19 03:30:18;;;;;;;1.75;0.52;;;;;;;5.06;80.94;101840.59;5029059;28;20531;-69
2023/12/19 03:32:44;;;;;;;3.35;0.40;;;;;;;5.05;81.04;101835.50;5029116;28;20037;-69
2023/12/19 03:35:11;;;;;;;2.45;0.68;;;;;;;5.05;81.06;101836.34;5029988;28;20440;-68
2023/12/19 03:37:37;;;;;;;1.00;0.30;;;;;;;4.98;80.90;101835.81;5029003;28;20044;-69
2023/12/19 03:40:02;;;;;;;1.88;0.35;;;;;;;4.99;81.23;101827.16;5029408;28;20044;-69
2023/12/19 03:42:28;;;;;;;0.63;0.30;;;;;;;4.98;80.83;101827.22;5026694;28;20111;-69
2023/12/19 03:44:53;;;;;;;0.82;0.25;;;;;;;5.06;80.21;101821.69;5024199;28;20048;-69
2023/12/19 03:47:19;;;;;;;4.60;0.30;;;;;;;5.09;79.84;101811.19;5008082;28;20030;-69
2023/12/19 03:49:44;;;;;;;2.53;0.45;;;;;;;5.01;80.09;101814.16;5028920;28;20110;-69
2023/12/19 03:52:10;;;;;;;2.53;0.30;;;;;;;4.97;80.42;101813.47;5028480;28;20112;-69
2023/12/19 03:54:35;;;;;;;0.85;0.20;;;;;;;4.93;80.43;101814.53;5006937;28;20032;-69
2023/12/19 03:57:00;;;;;;;2.25;0.40;;;;;;;4.88;80.72;101818.25;5025074;28;20376;-69
2023/12/19 03:59:26;;;;;;;3.00;0.40;;;;;;;4.88;80.94;101813.91;5027587;28;20468;-69
2023/12/19 04:01:51;;;;;;;1.38;0.30;;;;;;;4.87;81.05;101801.91;5026405;28;20030;-69
2023/12/19 04:04:17;;;;;;;0.90;0.47;;;;;;;4.88;80.82;101807.91;5025385;28;20039;-69
2023/12/19 04:06:45;;;;;;;1.15;0.30;;;;;;;4.87;81.09;101808.84;5023052;28;20025;-69
2023/12/19 04:09:11;;;;;;;7.78;0.50;;;;;;;4.86;80.68;101808.00;5025864;28;20088;-69
2023/12/19 04:11:36;;;;;;;2.60;0.30;;;;;;;4.92;80.73;101801.69;5028495;28;20052;-69
2023/12/19 04:14:03;;;;;;;3.83;0.30;;;;;;;4.99;80.28;101806.47;5024701;28;20046;-69
2023/12/19 04:16:28;;;;;;;1.88;0.47;;;;;;;4.98;80.43;101806.56;5026036;28;20041;-69
2023/12/19 04:18:53;;;;;;;2.20;0.35;;;;;;;4.89;80.48;101815.59;5026900;28;20052;-68
2023/12/19 04:21:19;;;;;;;1.30;0.50;;;;;;;4.91;80.46;101807.78;5027694;28;20034;-69
2023/12/19 04:23:44;;;;;;;1.10;0.45;;;;;;;4.93;80.10;101809.38;5026192;28;20461;-69
2023/12/19 04:26:19;;;;;;;2.55;0.38;;;;;;;4.96;79.23;101810.97;5028092;28;20025;-69
2023/12/19 04:28:46;;;;;;;1.30;0.30;;;;;;;4.97;79.57;101816.06;5024885;28;20088;-69
2023/12/19 04:31:11;;;;;;;2.55;0.50;;;;;;;4.94;79.94;101816.22;5027443;28;20284;-69
2023/12/19 04:33:37;;;;;;;3.20;0.60;;;;;;;4.87;80.38;101806.25;5025213;28;20060;-69
2023/12/19 04:36:03;;;;;;;0.73;0.20;;;;;;;4.87;80.40;101806.25;5027906;28;20045;-69
2023/12/19 04:38:29;;;;;;;2.38;0.47;;;;;;;4.85;80.49;101797.75;5027004;28;20033;-69
2023/12/19 04:40:54;;;;;;;1.80;0.40;;;;;;;4.77;80.87;101798.09;5033127;28;20040;-69
2023/12/19 04:43:19;;;;;;;3.35;0.30;;;;;;;4.84;80.14;101802.06;5031831;28;20071;-68
2023/12/19 04:45:45;;;;;;;1.48;0.30;;;;;;;4.82;80.23;101796.13;5031047;28;20048;-69
2023/12/19 04:48:10;;;;;;;2.33;0.40;;;;;;;4.89;79.83;101800.09;5028351;28;20048;-69
2023/12/19 04:50:36;;;;;;;0.63;0.20;;;;;;;4.87;79.76;101801.91;5028738;28;20103;-69
2023/12/19 04:53:01;;;;;;;3.15;0.30;;;;;;;4.79;80.38;101808.38;5031842;28;20021;-68
2023/12/19 04:55:27;;;;;;;0.88;0.22;;;;;;;4.66;80.65;101814.16;5030064;28;20083;-68
2023/12/19 04:57:52;;;;;;;2.47;0.73;;;;;;;4.57;81.05;101808.59;5031709;28;20033;-69
2023/12/19 05:00:18;;;;;;;2.55;0.70;;;;;;;4.37;82.02;101806.94;5030179;28;20762;-69
2023/12/19 05:02:44;;;;;;;3.13;0.40;;;;;;;4.31;82.02;101807.22;5031184;28;20196;-69
2023/12/19 05:05:09;;;;;;;1.45;0.40;;;;;;;4.52;81.69;101800.22;5028168;28;20393;-69
2023/12/19 05:07:34;;;;;;;1.55;0.38;;;;;;;4.57;81.84;101808.59;5031700;28;20026;-68
2023/12/19 05:10:00;;;;;;;4.25;0.40;;;;;;;4.57;81.45;101803.41;5033266;28;20087;-69
2023/12/19 05:12:26;;;;;;;3.08;0.50;;;;;;;4.70;80.12;101812.25;5029081;28;20021;-68
2023/12/19 05:14:51;;;;;;;1.40;0.45;;;;;;;4.61;80.58;101810.09;5030344;28;20036;-68
2023/12/19 05:17:17;;;;;;;1.20;0.25;;;;;;;4.59;81.12;101811.94;5032959;28;20095;-69
2023/12/19 05:19:43;;;;;;;1.45;0.40;;;;;;;4.64;80.78;101810.81;5031194;28;20065;-68
2023/12/19 05:22:09;;;;;;;4.13;0.55;;;;;;;4.65;nan;101806.47;5032699;28;20029;-68
2023/12/19 05:24:37;;;;;;;2.80;0.47;;;;;;;4.62;81.01;101804.03;5009673;28;20037;-69
2023/12/19 05:27:04;;;;;;;2.05;0.25;;;;;;;4.64;80.37;101807.38;5031681;28;20102;-69
2023/12/19 05:29:29;;;;;;;2.03;0.30;;;;;;;4.62;81.06;101798.88;5012287;28;20041;-69
2023/12/19 05:31:55;;;;;;;3.15;0.40;;;;;;;4.56;80.95;101799.16;5032282;28;20116;-69
2023/12/19 05:34:20;;;;;;;4.15;0.40;;;;;;;4.54;80.85;101798.41;5013567;28;20044;-68
2023/12/19 05:36:46;;;;;;;1.27;0.35;;;;;;;4.59;80.70;101791.28;5032271;28;20029;-69
2023/12/19 05:39:12;;;;;;;4.80;0.70;;;;;;;4.65;80.39;101803.91;5032940;28;20034;-69
2023/12/19 05:41:38;;;;;;;2.97;0.50;;;;;;;4.62;80.79;101802.28;5032100;28;20040;-69
2023/12/19 05:44:04;;;;;;;2.03;0.35;;;;;;;4.62;80.45;101804.03;5026592;28;20030;-69
2023/12/19 05:46:29;;;;;;;5.80;0.57;;;;;;;4.65;80.13;101796.16;5011700;28;20070;-69
2023/12/19 05:48:55;;;;;;;3.88;0.57;;;;;;;4.54;80.75;101806.16;5031581;28;20026;-69
2023/12/19 05:51:20;;;;;;;5.97;0.75;;;;;;;4.52;80.63;101795.91;5029015;28;20044;-70
2023/12/19 05:53:45;;;;;;;3.42;0.80;;;;;;;4.58;80.31;101805.09;5030644;28;20033;-69
2023/12/19 05:56:13;;;;;;;3.97;0.50;;;;;;;4.61;80.60;101797.19;5031535;28;20028;-69
2023/12/19 05:58:38;;;;;;;4.32;0.50;;;;;;;4.63;80.36;101797.97;5029643;28;20044;-69
2023/12/19 06:01:04;;;;;;;3.10;0.50;;;;;;;4.69;80.08;101800.25;5026850;28;20029;-69
2023/12/19 06:03:29;;;;;;;2.75;0.60;;;;;;;4.72;79.98;101804.44;5030923;28;20052;-69
2023/12/19 06:05:54;;;;;;;1.77;0.30;;;;;;;4.68;80.44;101801.16;5031549;28;20044;-69
2023/12/19 06:08:20;;;;;;;2.05;0.68;;;;;;;4.65;80.33;101803.91;5030018;28;20026;-69
2023/12/19 06:10:46;;;;;;;1.50;0.30;;;;;;;4.64;80.41;101805.63;5012755;28;20037;-69
2023/12/19 06:13:11;;;;;;;3.65;0.40;;;;;;;4.66;80.17;101797.81;5029567;28;20131;-69
2023/12/19 06:15:37;;;;;;;1.00;0.30;;;;;;;4.66;79.66;101802.97;5027174;28;20100;-69
2023/12/19 06:18:03;;;;;;;2.03;0.50;;;;;;;4.65;80.08;101801.31;5026361;28;20051;-68
2023/12/19 06:20:28;;;;;;;2.85;0.50;;;;;;;4.64;79.49;101797.06;5030964;28;20033;-68
2023/12/19 06:22:53;;;;;;;0.95;0.30;;;;;;;4.67;79.83;101802.06;5030510;28;20033;-69
2023/12/19 06:25:19;;;;;;;1.77;0.50;;;;;;;4.71;79.62;101790.69;5025273;28;20033;-69
2023/12/19 06:27:44;;;;;;;3.60;0.63;;;;;;;4.67;79.80;101784.00;5024480;28;20025;-69
2023/12/19 06:30:10;;;;;;;2.67;0.45;;;;;;;4.62;80.05;101780.81;5028253;28;20029;-69
2023/12/19 06:32:36;;;;;;;1.40;0.30;;;;;;;4.60;80.21;101775.72;5030563;28;20140;-69
2023/12/19 06:35:07;;;;;;;6.28;0.50;;;;;;;4.58;80.35;101779.28;5030503;28;20121;-68
2023/12/19 06:37:34;;;;;;;1.65;0.30;;;;;;;4.58;79.86;101781.84;5029483;28;20036;-69
2023/12/19 06:39:59;;;;;;;4.18;0.52;;;;;;;4.53;80.12;101783.81;5010386;28;20044;-69
2023/12/19 06:42:25;;;;;;;4.40;0.60;;;;;;;4.49;80.52;101784.88;5025129;28;20026;-69
2023/12/19 06:44:50;;;;;;;2.80;0.57;;;;;;;4.51;80.21;101783.06;5028573;28;20071;-69
2023/12/19 06:47:16;;;;;;;3.80;0.55;;;;;;;4.49;80.24;101790.03;5031129;28;20079;-69
2023/12/19 06:49:43;;;;;;;3.67;0.65;;;;;;;4.46;80.09;101796.19;5029891;28;20036;-69
2023/12/19 06:52:09;;;;;;;3.67;0.63;;;;;;;4.51;80.26;101798.53;5028597;28;20420;-68
2023/12/19 06:54:38;;;;;;;3.97;0.68;;;;;;;4.50;80.23;101786.56;5026532;28;20033;-69
2023/12/19 06:57:04;;;;;;;4.80;0.70;;;;;;;4.49;80.27;101787.47;5028215;28;20029;-69
2023/12/19 06:59:32;;;;;;;1.60;0.70;;;;;;;4.50;79.81;101781.38;5026748;28;21411;-68
2023/12/19 07:01:58;;;;;;;4.90;0.57;;;;;;;4.48;80.29;101778.88;5027278;28;20040;-69
2023/12/19 07:04:23;;;;;;;1.80;0.30;;;;;;;4.49;80.05;101777.13;5029476;28;20025;-69
2023/12/19 07:06:48;;;;;;;2.35;0.40;;;;;;;4.48;79.82;101770.31;5027474;28;20021;-69
2023/12/19 07:09:14;;;;;;;1.70;0.50;;;;;;;4.49;80.11;101764.22;5030665;28;20108;-69
2023/12/19 07:11:41;;;;;;;2.25;0.60;;;;;;;4.48;80.17;101757.41;5029696;28;20036;-69
2023/12/19 07:14:07;;;;;;;4.13;0.50;;;;;;;4.46;80.34;101747.16;5029384;28;20037;-69
2023/12/19 07:16:33;;;;;;;1.65;0.32;;;;;;;4.51;80.01;101757.25;5028869;28;20056;-69
2023/12/19 07:19:00;;;;;;;7.93;0.98;;;;;;;4.51;80.10;101767.56;5026418;28;20064;-69
2023/12/19 07:21:26;;;;;;;5.97;1.73;;;;;;;4.23;81.13;101768.91;5028225;28;20048;-69
2023/12/19 07:23:53;;;;;;;6.70;1.08;;;;;;;4.03;82.35;101789.63;5029596;28;20029;-69
2023/12/19 07:26:29;;;;;;;2.50;0.50;;;;;;;4.25;nan;101792.06;5029688;28;20063;-70
2023/12/19 07:28:54;;;;;;;;;;;;;;;4.45;79.88;101779.03;5010815;28;20041;-70
2023/12/19 07:31:23;;;;;;;3.50;0.45;;;;;;;4.58;79.93;101780.13;5028581;28;19983;-69
2023/12/19 07:33:51;;;;;;;2.70;0.50;;;;;;;4.68;79.68;101777.09;5029834;28;20025;-68
2023/12/19 07:36:16;;;;;;;5.28;0.60;;;;;;;4.70;79.29;101773.53;5028547;28;20053;-69
2023/12/19 07:38:42;;;;;;;2.88;0.30;;;;;;;4.62;79.66;101773.06;5027801;28;20029;-69
2023/12/19 07:41:07;;;;;;;2.90;0.35;;;;;;;4.56;79.65;101771.59;5030187;28;20495;-70
2023/12/19 07:43:33;;;;;;;3.72;0.30;;;;;;;4.64;79.19;101768.66;5029495;28;20512;-69
2023/12/19 07:45:58;;;;;;;1.08;0.30;;;;;;;4.72;79.19;101763.13;5029352;28;20036;-69
2023/12/19 07:48:24;;;;;;;1.75;0.43;;;;;;;4.81;78.83;101766.06;5029501;28;20424;-69
2023/12/19 07:50:50;;;;;;;1.40;0.30;;;;;;;4.83;78.92;101759.06;5028802;28;20029;-69
2023/12/19 07:53:15;;;;;;;3.78;0.25;;;;;;;4.84;78.84;101765.06;5024393;28;20025;-69
2023/12/19 07:55:41;;;;;;;6.63;0.40;;;;;;;4.90;78.59;101765.63;5027058;28;20053;-69
2023/12/19 07:58:07;;;;;;;2.97;0.65;;;;;;;5.01;78.03;101772.84;5010311;28;20029;-69
2023/12/19 08:00:33;;;;;;;3.25;0.50;;;;;;;5.10;78.31;101776.69;5029154;28;20044;-69
2023/12/19 08:02:58;;;;;;;1.60;0.40;;;;;;;5.19;77.98;101776.25;5028704;28;20029;-69
2023/12/19 08:05:24;;;;;;;2.80;0.47;;;;;;;5.28;77.53;101765.41;5024560;28;20533;-69
2023/12/19 08:07:49;;;;;;;3.08;0.40;;;;;;;5.33;77.25;101773.75;5029794;28;20139;-69
2023/12/19 08:10:15;;;;;;;2.60;0.20;;;;;;;5.43;76.55;101769.78;5027326;28;20392;-69
2023/12/19 08:12:41;;;;;;;1.80;0.40;;;;;;;5.51;75.31;101770.22;5028738;28;20022;-69
2023/12/19 08:15:08;;;;;;;4.05;0.50;;;;;;;5.58;75.48;101765.59;5027917;28;20033;-69
2023/12/19 08:17:33;;;;;;;4.25;0.50;;;;;;;5.58;75.00;101768.16;5027836;28;20088;-69
2023/12/19 08:19:59;;;;;;;2.50;0.68;;;;;;;5.54;75.67;101764.06;5027199;28;20053;-69
2023/12/19 08:22:24;;;;;;;1.40;0.30;;;;;;;5.53;75.80;101755.47;5028814;28;20498;-69
2023/12/19 08:24:49;;;;;;;2.38;0.82;;;;;;;5.53;76.54;101750.31;5026194;28;20417;-70
2023/12/19 08:27:15;;;;;;;1.88;0.40;;;;;;;5.56;76.04;101754.47;5028641;28;20025;-70
2023/12/19 08:29:41;;;;;;;2.50;0.43;;;;;;;5.59;75.56;101755.16;5026673;28;20079;-69
2023/12/19 08:32:06;;;;;;;2.08;0.50;;;;;;;5.60;76.25;101748.25;5026231;28;20131;-69
2023/12/19 08:34:32;;;;;;;1.35;0.25;;;;;;;5.62;76.58;101742.06;5027660;28;20072;-69
2023/12/19 08:36:57;;;;;;;2.42;0.43;;;;;;;5.68;75.75;101738.28;5009946;28;20060;-69
2023/12/19 08:39:22;;;;;;;3.72;0.93;;;;;;;5.80;76.02;101741.97;5026704;28;20033;-70
2023/12/19 08:41:48;;;;;;;1.85;0.40;;;;;;;5.87;75.59;101735.56;5029646;28;20168;-69
2023/12/19 08:44:14;;;;;;;5.05;0.50;;;;;;;5.91;75.55;101740.53;5026165;28;20037;-70
2023/12/19 08:46:39;;;;;;;2.53;0.60;;;;;;;6.01;75.11;101735.69;5008750;28;20033;-69
2023/12/19 08:49:05;;;;;;;1.80;0.65;;;;;;;6.14;73.88;101730.66;5029981;28;20083;-69
2023/12/19 08:51:31;;;;;;;2.78;0.30;;;;;;;6.21;73.63;101732.81;5028448;28;20037;-69
2023/12/19 08:53:57;;;;;;;0.73;0.20;;;;;;;6.28;73.98;101728.13;5028621;28;20117;-69
2023/12/19 08:56:22;;;;;;;2.80;0.40;;;;;;;6.35;73.70;101728.63;5027246;28;20036;-70
2023/12/19 08:58:49;;;;;;;2.78;0.40;;;;;;;6.40;73.26;101740.38;5027418;28;20123;-70
2023/12/19 09:01:14;;;;;;;1.38;0.30;;;;;;;6.45;73.07;101742.72;5029472;28;20037;-69
2023/12/19 09:03:40;;;;;;;4.78;0.60;;;;;;;6.58;72.75;101736.75;5028510;28;20163;-69
2023/12/19 09:06:06;;;;;;;4.00;0.40;;;;;;;6.66;72.07;101736.28;5030033;28;20040;-69
2023/12/19 09:08:32;;;;;;;1.25;0.20;;;;;;;6.73;72.73;101729.84;5029359;28;20436;-69
2023/12/19 09:10:58;;;;;;;2.03;0.40;;;;;;;6.76;71.77;101723.63;5029306;28;20047;-69
2023/12/19 09:13:23;;;;;;;4.35;0.50;;;;;;;6.84;72.31;101717.09;5026979;28;20041;-69
2023/12/19 09:15:49;;;;;;;1.60;0.30;;;;;;;6.94;71.34;101713.03;5029684;28;20543;-70
2023/12/19 09:18:14;;;;;;;1.85;0.43;;;;;;;7.05;71.08;101709.00;5029538;28;20030;-69
2023/12/19 09:20:39;;;;;;;6.38;0.40;;;;;;;7.06;71.94;101710.66;5029087;28;20029;-69
2023/12/19 09:23:06;;;;;;;3.55;0.47;;;;;;;7.10;71.43;101717.28;5032100;28;20037;-69
2023/12/19 09:25:32;;;;;;;3.60;0.32;;;;;;;7.18;72.08;101709.91;5016177;28;20033;-70
2023/12/19 09:27:57;;;;;;;1.98;0.60;;;;;;;7.23;70.11;101706.09;5032316;28;20029;-69
2023/12/19 09:30:23;;;;;;;2.78;0.40;;;;;;;7.31;70.50;101697.84;5031002;28;20502;-69
2023/12/19 09:32:49;;;;;;;3.20;0.55;;;;;;;7.32;71.18;101696.94;5029550;28;20030;-70
2023/12/19 09:35:14;;;;;;;1.27;0.35;;;;;;;7.47;70.20;101696.00;5031304;28;20091;-69
2023/12/19 09:37:40;;;;;;;1.88;0.40;;;;;;;7.54;70.82;101691.28;5030642;28;20475;-69
2023/12/19 09:40:19;;;;;;;1.52;0.30;;;;;;;7.63;69.47;101688.91;5031922;28;20037;-70
2023/12/19 09:42:44;;;;;;;2.63;0.38;;;;;;;7.76;68.34;101675.19;5031482;28;20021;-69
2023/12/19 09:45:12;;;;;;;2.22;0.40;;;;;;;7.85;69.94;101674.59;5032033;28;20393;-69
2023/12/19 09:47:40;;;;;;;3.30;0.60;;;;;;;7.94;69.32;101676.63;5030699;28;20033;-69
2023/12/19 09:50:12;;;;;;;3.42;0.68;;;;;;;8.01;69.42;101679.66;5031311;28;20060;-69
2023/12/19 09:52:39;;;;;;;2.15;0.60;;;;;;;8.09;69.03;101677.38;5013986;28;20071;-69
2023/12/19 09:55:05;;;;;;;1.05;0.30;;;;;;;8.16;68.13;101671.69;5025380;28;20026;-69
2023/12/19 09:57:33;;;;;;;2.88;0.57;;;;;;;8.22;67.78;101663.50;5028948;28;20037;-69
2023/12/19 10:00:07;;;;;;;2.55;0.50;;;;;;;8.20;68.94;101660.19;5013110;28;20037;-69
2023/12/19 10:02:32;;;;;;;4.95;0.30;;;;;;;8.34;68.18;101655.88;5027128;28;20025;-70
2023/12/19 10:04:58;;;;;;;4.18;0.68;;;;;;;8.51;68.39;101664.19;5030045;28;20083;-70
2023/12/19 10:07:23;;;;;;;2.15;0.60;;;;;;;8.63;66.33;101654.75;5026621;28;20021;-70
2023/12/19 10:09:56;;;;;;;2.83;0.60;;;;;;;8.58;67.57;101655.06;5028241;28;20036;-70
2023/12/19 10:12:22;;;;;;;2.47;0.60;;;;;;;8.66;68.41;101646.75;5027228;28;20036;-70
2023/12/19 10:14:48;;;;;;;3.83;0.82;;;;;;;8.64;67.73;101643.44;5028611;28;20116;-70
2023/12/19 10:17:15;;;;;;;3.63;0.60;;;;;;;8.73;66.94;101640.22;5029478;28;20028;-69
2023/12/19 10:35:22;;;;;;;4.00;0.63;;;;;;;9.48;65.23;101599.38;5080350;28;20405;-71
2023/12/19 10:37:47;;;;;;;3.35;0.20;;;;;;;9.50;65.66;101589.72;5054187;28;20028;-69
2023/12/19 10:40:15;;;;;;;0.88;0.22;;;;;;;9.56;64.90;101591.88;5060956;28;20071;-69
2023/12/19 10:42:41;;;;;;;3.28;0.30;;;;;;;9.54;66.53;101583.34;5066278;28;20090;-69
2023/12/19 10:45:07;;;;;;;1.13;0.30;;;;;;;9.50;66.13;101576.69;5061671;28;20411;-69
2023/12/19 10:47:32;;;;;;;4.20;0.40;;;;;;;9.58;65.16;101571.78;5064162;28;20052;-69
2023/12/19 10:49:58;;;;;;;1.67;0.55;;;;;;;9.64;64.83;101568.72;5065288;28;20111;-69
2023/12/19 10:52:27;;;;;;;1.40;0.40;;;;;;;9.61;65.24;101563.75;5061291;28;20447;-69
2023/12/19 10:55:04;;;;;;;1.70;0.50;;;;;;;9.75;65.57;101557.53;5063485;28;20021;-69
2023/12/19 10:57:33;;;;;;;1.70;0.50;;;;;;;9.92;66.40;101548.50;5063062;28;20365;-69
2023/12/19 11:00:13;;;;;;;3.15;0.60;;;;;;;10.10;65.65;101543.66;5065720;28;20491;-69
2023/12/19 11:03:05;;;;;;;2.75;0.70;;;;;;;10.22;64.20;101535.81;5063690;28;20033;-68
2023/12/19 11:05:48;;;;;;;2.50;0.60;;;;;;;10.16;65.75;101533.63;5056863;28;20199;-69
2023/12/19 11:08:17;;;;;;;1.83;0.70;;;;;;;10.16;66.67;101533.63;5055110;28;20119;-69
2023/12/19 11:10:49;;;;;;;1.65;0.50;;;;;;;10.30;65.77;101515.22;5061337;28;20044;-69
2023/12/19 11:13:16;;;;;;;1.60;0.57;;;;;;;10.30;66.29;101517.81;5064582;28;20069;-69
2023/12/19 11:15:53;;;;;;;4.40;0.90;;;;;;;10.42;66.20;101510.00;5059150;28;20577;-69
2023/12/19 11:18:27;;;;;;;1.55;0.45;;;;;;;10.60;64.52;101508.56;5057665;28;20064;-68
2023/12/19 11:21:05;;;;;;;2.30;0.50;;;;;;;10.61;63.37;101499.81;5046338;28;20039;-68
2023/12/19 11:23:55;;;;;;;5.47;0.57;;;;;;;10.78;63.52;101498.50;5056558;28;20039;-69
2023/12/19 11:26:29;;;;;;;2.55;0.50;;;;;;;10.78;63.26;101494.13;5074872;28;20032;-69
2023/12/19 11:28:54;;;;;;;2.45;0.40;;;;;;;10.80;66.15;101486.19;5074275;28;20033;-69
2023/12/19 11:31:30;;;;;;;5.20;0.80;;;;;;;10.65;66.66;101488.19;5073971;28;20025;-69
2023/12/19 11:34:23;;;;;;;2.40;0.60;;;;;;;10.48;65.07;101491.28;5074697;28;20698;-68
2023/12/19 11:37:03;;;;;;;2.65;0.40;;;;;;;10.46;64.17;101474.94;5056265;28;20451;-69
2023/12/19 11:39:33;;;;;;;2.13;0.50;;;;;;;10.69;63.92;101473.97;5077177;28;20058;-69
2023/12/19 11:41:59;;;;;;;1.90;0.50;;;;;;;10.75;65.63;101470.06;5074315;28;20020;-69
2023/12/19 11:44:34;;;;;;;2.03;0.63;;;;;;;10.85;63.46;101469.22;5079184;28;20094;-68
2023/12/19 11:47:16;;;;;;;3.88;0.95;;;;;;;10.94;62.40;101465.84;5066602;28;20082;-68